Time;durP1;ratioP1;P1;durP2;ratioP2;P2;SDS_P1;SDS_P2;PMS_P1;PMS_P2;Temp;Humidity;BMP_temperature;BMP_pressure;BME280_temperature;BME280_humidity;BME280_pressure;Samples;Min_cycle;Max_cycle;Signal;HPM_P1;HPM_P2
2021/04/11 00:01:33;;;;;;;3.83;2.80;;;13.40;57.20;;;;;;5067863;28;20194;-73
2021/04/11 00:03:59;;;;;;;3.60;2.53;;;13.30;57.60;;;;;;5068500;28;20964;-73
2021/04/11 00:06:25;;;;;;;5.10;2.97;;;13.20;57.60;;;;;;5076206;28;20442;-72
2021/04/11 00:08:51;;;;;;;4.77;2.97;;;13.20;57.80;;;;;;5077125;28;20685;-73
2021/04/11 00:11:17;;;;;;;5.93;2.50;;;13.10;57.80;;;;;;5066950;28;20610;-74
2021/04/11 00:13:43;;;;;;;5.83;2.50;;;13.10;57.80;;;;;;5067332;28;20828;-73
2021/04/11 00:16:09;;;;;;;3.73;2.37;;;13.10;57.40;;;;;;5053051;28;20422;-72
2021/04/11 00:18:35;;;;;;;3.47;2.50;;;13.00;57.20;;;;;;5067450;28;20204;-73
2021/04/11 00:21:05;;;;;;;4.50;2.60;;;13.10;57.20;;;;;;5066873;28;20432;-72
2021/04/11 00:23:32;;;;;;;3.93;2.27;;;13.00;57.00;;;;;;5066823;28;20812;-73
2021/04/11 00:25:57;;;;;;;5.77;2.77;;;13.00;57.40;;;;;;5066558;28;20422;-73
2021/04/11 00:28:23;;;;;;;4.60;2.50;;;13.10;57.00;;;;;;5058249;28;20483;-73
2021/04/11 00:30:49;;;;;;;4.43;2.30;;;13.10;57.40;;;;;;5065097;28;20270;-72
2021/04/11 00:33:28;;;;;;;4.07;2.60;;;13.00;57.20;;;;;;5066529;28;20609;-72
2021/04/11 00:36:03;;;;;;;8.20;2.03;;;13.00;57.00;;;;;;5065242;28;20417;-72
2021/04/11 00:38:30;;;;;;;3.00;2.10;;;13.00;56.60;;;;;;5066901;28;20431;-73
2021/04/11 00:40:59;;;;;;;5.90;1.97;;;13.00;56.60;;;;;;5066704;28;20789;-73
2021/04/11 00:43:25;;;;;;;3.63;2.00;;;13.00;56.50;;;;;;5065252;28;20545;-73
2021/04/11 00:46:21;;;;;;;2.20;1.90;;;13.00;56.50;;;;;;5068256;28;20421;-72
2021/04/11 00:48:48;;;;;;;3.50;2.20;;;13.00;56.60;;;;;;5054456;28;20434;-73
2021/04/11 00:51:16;;;;;;;3.80;2.00;;;13.00;57.60;;;;;;5068165;28;20481;-73
2021/04/11 00:53:43;;;;;;;4.13;2.30;;;13.00;57.00;;;;;;5063710;28;20455;-72
2021/04/11 00:56:12;;;;;;;3.80;2.33;;;12.90;57.20;;;;;;5063604;28;20416;-72
2021/04/11 00:58:38;;;;;;;2.73;1.90;;;12.90;56.90;;;;;;5068731;28;20434;-72
2021/04/11 01:01:08;;;;;;;3.50;2.30;;;12.90;57.30;;;;;;5065844;28;20435;-71
2021/04/11 01:03:37;;;;;;;4.90;2.20;;;12.80;57.80;;;;;;5063530;28;20431;-72
2021/04/11 01:06:09;;;;;;;4.07;2.20;;;12.80;58.10;;;;;;5064755;28;20426;-72
2021/04/11 01:08:36;;;;;;;5.50;2.53;;;12.80;57.00;;;;;;5067186;28;20434;-72
2021/04/11 01:11:14;;;;;;;3.47;2.30;;;12.80;58.10;;;;;;5063114;28;20470;-72
2021/04/11 01:13:46;;;;;;;3.07;2.00;;;12.80;58.50;;;;;;5062162;28;20413;-72
2021/04/11 01:16:13;;;;;;;4.83;2.23;;;12.70;59.20;;;;;;5053993;28;20413;-72
2021/04/11 01:18:40;;;;;;;2.40;1.90;;;12.80;58.50;;;;;;5068721;28;20406;-73
2021/04/11 01:21:24;;;;;;;3.30;1.93;;;12.60;58.70;;;;;;5063296;28;20961;-73
2021/04/11 01:24:15;;;;;;;3.60;2.33;;;12.60;59.10;;;;;;5062847;28;20418;-71
2021/04/11 01:26:42;;;;;;;7.93;2.63;;;12.60;58.40;;;;;;5068272;28;20462;-71
2021/04/11 01:29:09;;;;;;;3.70;1.83;;;12.60;58.80;;;;;;5067964;28;20445;-71
2021/04/11 01:31:35;;;;;;;3.80;2.13;;;12.50;58.90;;;;;;5068621;28;20495;-72
2021/04/11 01:34:02;;;;;;;3.23;2.43;;;12.50;58.90;;;;;;5068269;28;20420;-73
2021/04/11 01:36:30;;;;;;;2.63;1.90;;;12.50;59.50;;;;;;5068232;28;20203;-73
2021/04/11 01:39:02;;;;;;;4.27;2.20;;;12.50;59.70;;;;;;5069304;28;20418;-72
2021/04/11 01:41:36;;;;;;;3.83;2.30;;;12.50;59.90;;;;;;5072470;28;20425;-73
2021/04/11 01:44:04;;;;;;;3.03;2.03;;;12.50;59.70;;;;;;5072308;28;20425;-72
2021/04/11 01:46:31;;;;;;;3.23;1.60;;;12.30;59.70;;;;;;5071186;28;20498;-72
2021/04/11 01:48:58;;;;;;;4.13;2.03;;;12.30;60.00;;;;;;5068373;28;20438;-72
2021/04/11 01:51:33;;;;;;;4.50;2.50;;;12.30;60.00;;;;;;5068869;28;21054;-72
2021/04/11 01:54:01;;;;;;;3.90;2.03;;;12.30;59.90;;;;;;5072967;28;20421;-73
2021/04/11 01:56:28;;;;;;;2.60;2.03;;;12.30;60.10;;;;;;5072848;28;20461;-71
2021/04/11 01:58:54;;;;;;;5.87;2.37;;;12.30;60.10;;;;;;5072223;28;20413;-72
2021/04/11 02:01:25;;;;;;;4.30;2.00;;;12.40;60.10;;;;;;5070975;28;20418;-73
2021/04/11 02:03:53;;;;;;;3.97;2.30;;;12.40;60.30;;;;;;5071040;28;20255;-72
2021/04/11 02:06:20;;;;;;;3.20;2.13;;;12.40;60.30;;;;;;5070812;28;20438;-72
2021/04/11 02:08:48;;;;;;;3.13;2.10;;;12.40;60.00;;;;;;5071420;28;20406;-72
2021/04/11 02:11:15;;;;;;;6.10;2.07;;;12.40;59.90;;;;;;5072289;28;20458;-72
2021/04/11 02:13:41;;;;;;;2.90;2.10;;;12.50;59.70;;;;;;5073551;28;20422;-70
2021/04/11 02:16:10;;;;;;;2.73;1.73;;;12.50;60.10;;;;;;5060238;28;21157;-73
2021/04/11 02:18:36;;;;;;;3.93;2.17;;;12.50;59.90;;;;;;5074896;28;20505;-72
2021/04/11 02:21:07;;;;;;;2.77;2.00;;;12.50;59.90;;;;;;5073430;28;20425;-72
2021/04/11 02:23:35;;;;;;;4.60;2.43;;;12.40;60.30;;;;;;5074434;28;20418;-73
2021/04/11 02:26:01;;;;;;;3.13;1.80;;;12.40;59.90;;;;;;5073167;28;20418;-72
2021/04/11 02:28:30;;;;;;;6.30;2.07;;;12.40;60.00;;;;;;5067150;28;20426;-72
2021/04/11 02:31:18;;;;;;;4.80;2.03;;;12.40;59.90;;;;;;5071207;28;20569;-73
2021/04/11 02:34:03;;;;;;;3.43;2.27;;;12.50;59.90;;;;;;5072692;28;20418;-72
2021/04/11 02:36:47;;;;;;;3.60;2.30;;;12.40;60.00;;;;;;5073720;28;20434;-72
2021/04/11 02:39:19;;;;;;;3.40;2.10;;;12.50;60.10;;;;;;5063196;28;20422;-72
2021/04/11 02:41:46;;;;;;;3.90;2.00;;;12.50;60.30;;;;;;5072381;28;20418;-73
2021/04/11 02:44:12;;;;;;;3.97;2.20;;;12.50;60.10;;;;;;5072528;28;20430;-72
2021/04/11 02:46:41;;;;;;;2.30;1.83;;;12.50;60.00;;;;;;5075794;28;20438;-72
2021/04/11 02:49:11;;;;;;;3.17;2.20;;;12.50;60.10;;;;;;5075404;28;21044;-73
2021/04/11 02:51:38;;;;;;;2.70;1.93;;;12.60;60.10;;;;;;5071268;28;20458;-73
2021/04/11 02:54:06;;;;;;;2.17;2.00;;;12.60;60.30;;;;;;5072151;28;20426;-71
2021/04/11 02:56:36;;;;;;;2.10;1.43;;;12.70;61.50;;;;;;5072233;28;21016;-72
2021/04/11 02:59:03;;;;;;;2.83;1.93;;;12.70;61.60;;;;;;5071547;28;20437;-72
2021/04/11 03:01:39;;;;;;;2.70;2.03;;;12.80;61.90;;;;;;5073011;28;20453;-72
2021/04/11 03:04:06;;;;;;;4.27;2.00;;;12.70;62.00;;;;;;5072939;28;20433;-73
2021/04/11 03:06:38;;;;;;;8.17;2.67;;;12.80;61.90;;;;;;5072182;28;20446;-72
2021/04/11 03:09:15;;;;;;;4.47;1.80;;;12.80;61.90;;;;;;5072070;28;20430;-72
2021/04/11 03:11:50;;;;;;;2.50;1.90;;;12.80;61.90;;;;;;5072509;28;20466;-71
2021/04/11 03:14:18;;;;;;;4.67;2.00;;;12.80;62.80;;;;;;5069202;28;20496;-72
2021/04/11 03:16:45;;;;;;;2.77;2.13;;;12.80;63.10;;;;;;5062328;28;20525;-71
2021/04/11 03:19:16;;;;;;;5.30;2.13;;;12.70;63.20;;;;;;5072454;28;20427;-74
2021/04/11 03:21:42;;;;;;;4.87;2.50;;;12.70;63.70;;;;;;5072421;28;20481;-72
2021/04/11 03:24:08;;;;;;;4.67;2.03;;;12.70;63.50;;;;;;5071714;28;20471;-73
2021/04/11 03:26:41;;;;;;;5.13;2.83;;;12.60;63.70;;;;;;5071740;28;20472;-74
2021/04/11 03:29:09;;;;;;;3.20;2.00;;;12.60;64.20;;;;;;5071570;28;20453;-73
2021/04/11 03:32:07;;;;;;;3.20;1.87;;;12.60;64.10;;;;;;5072955;28;20461;-72
2021/04/11 03:34:35;;;;;;;7.20;2.27;;;12.60;65.10;;;;;;5076815;28;21204;-72
2021/04/11 03:37:03;;;;;;;3.00;2.10;;;12.60;64.80;;;;;;5075102;28;20441;-73
2021/04/11 03:39:33;;;;;;;4.20;1.70;;;12.60;64.80;;;;;;5078781;28;20819;-73
2021/04/11 03:42:03;;;;;;;3.20;1.90;;;12.60;65.30;;;;;;5077333;28;20474;-72
2021/04/11 03:44:28;;;;;;;3.63;2.23;;;12.60;65.40;;;;;;5078044;28;20425;-73
2021/04/11 03:47:06;;;;;;;3.47;1.93;;;12.50;65.60;;;;;;5081409;28;20461;-73
2021/04/11 03:49:49;;;;;;;4.80;2.27;;;12.50;65.70;;;;;;5081265;28;20195;-72
2021/04/11 03:52:32;;;;;;;4.67;2.00;;;12.50;66.00;;;;;;5087536;28;20452;-73
2021/04/11 03:55:02;;;;;;;3.00;1.90;;;12.50;66.00;;;;;;5088012;28;20422;-72
2021/04/11 03:57:49;;;;;;;5.17;2.80;;;12.40;66.10;;;;;;5088121;28;20442;-73
2021/04/11 04:00:18;;;;;;;7.33;3.00;;;12.40;66.00;;;;;;5085189;28;20430;-72
2021/04/11 04:02:46;;;;;;;10.53;4.53;;;12.30;65.40;;;;;;5068825;28;20924;-72
2021/04/11 04:05:19;;;;;;;9.97;5.10;;;12.30;65.60;;;;;;5069559;28;20433;-73
2021/04/11 04:07:51;;;;;;;6.90;4.30;;;12.20;65.80;;;;;;5069378;28;20442;-72
2021/04/11 04:10:21;;;;;;;3.93;2.83;;;12.20;65.70;;;;;;5068265;28;20477;-72
2021/04/11 04:12:52;;;;;;;2.67;2.43;;;12.10;65.30;;;;;;5069434;28;20770;-73
2021/04/11 04:15:32;;;;;;;6.37;2.67;;;12.10;65.10;;;;;;5057183;28;20797;-73
2021/04/11 04:18:07;;;;;;;6.70;2.37;;;12.00;65.00;;;;;;5069852;28;20524;-73
2021/04/11 04:20:41;;;;;;;5.00;2.87;;;11.90;65.60;;;;;;5070800;28;20433;-72
2021/04/11 04:23:48;;;;;;;3.83;2.50;;;12.00;65.40;;;;;;5069851;28;20429;-72
2021/04/11 04:26:26;;;;;;;5.90;2.70;;;11.90;66.00;;;;;;5052705;28;20433;-72
2021/04/11 04:29:34;;;;;;;4.03;2.77;;;12.00;65.70;;;;;;5068856;28;20431;-72
2021/04/11 04:32:18;;;;;;;5.40;2.87;;;12.00;66.00;;;;;;5069471;28;20553;-73
2021/04/11 04:35:00;;;;;;;5.87;2.83;;;12.00;65.80;;;;;;5064953;28;20427;-73
2021/04/11 04:37:48;;;;;;;4.40;2.83;;;12.00;66.00;;;;;;5056495;28;20482;-72
2021/04/11 04:40:36;;;;;;;4.27;2.60;;;12.00;66.10;;;;;;5069036;28;20441;-71
2021/04/11 04:43:10;;;;;;;5.87;2.60;;;12.00;65.60;;;;;;5069084;28;20480;-72
2021/04/11 04:45:41;;;;;;;4.03;2.40;;;12.00;65.30;;;;;;5069597;28;20426;-71
2021/04/11 04:48:22;;;;;;;4.70;2.33;;;12.00;65.40;;;;;;5069315;28;20469;-73
2021/04/11 04:50:54;;;;;;;3.50;2.53;;;11.90;65.70;;;;;;5069012;28;20469;-72
2021/04/11 04:53:35;;;;;;;4.27;2.20;;;11.90;65.60;;;;;;5068638;28;20442;-73
2021/04/11 04:56:04;;;;;;;3.83;2.47;;;11.90;65.80;;;;;;5068993;28;20421;-72
2021/04/11 04:58:42;;;;;;;2.53;2.30;;;11.90;65.80;;;;;;5069133;28;20433;-73
2021/04/11 05:01:33;;;;;;;6.03;2.40;;;12.00;65.80;;;;;;5077658;28;20420;-72
2021/04/11 05:04:10;;;;;;;4.03;2.53;;;12.10;66.10;;;;;;5082340;28;20434;-73
2021/04/11 05:06:52;;;;;;;4.43;2.50;;;12.10;65.40;;;;;;5063115;28;20453;-72
2021/04/11 05:09:37;;;;;;;4.83;2.90;;;12.10;65.70;;;;;;5067136;28;20967;-73
2021/04/11 05:12:27;;;;;;;4.40;2.80;;;12.20;65.80;;;;;;5068673;28;20988;-72
2021/04/11 05:15:07;;;;;;;5.53;2.87;;;12.20;66.10;;;;;;5054724;28;20476;-73
2021/04/11 05:17:36;;;;;;;4.07;2.67;;;12.30;66.00;;;;;;5068694;28;20509;-72
2021/04/11 05:20:11;;;;;;;2.70;2.00;;;12.30;65.80;;;;;;5070874;28;21288;-73
2021/04/11 05:22:46;;;;;;;4.70;2.67;;;12.30;65.80;;;;;;5072169;28;20413;-72
2021/04/11 05:25:27;;;;;;;4.97;2.90;;;12.40;65.70;;;;;;5072478;28;21115;-72
2021/04/11 05:28:16;;;;;;;5.63;2.83;;;12.40;65.30;;;;;;5066147;28;20960;-73
2021/04/11 05:30:46;;;;;;;4.90;2.77;;;12.40;64.80;;;;;;5071772;28;20499;-73
2021/04/11 05:33:19;;;;;;;5.37;2.57;;;12.40;65.00;;;;;;5070722;28;20473;-73
2021/04/11 05:35:47;;;;;;;3.87;2.87;;;12.40;65.10;;;;;;5071961;28;20429;-73
2021/04/11 05:38:38;;;;;;;3.20;2.20;;;12.50;65.00;;;;;;5072080;28;20520;-72
2021/04/11 05:41:14;;;;;;;5.10;2.43;;;12.50;65.10;;;;;;5062349;28;21303;-73
2021/04/11 05:44:03;;;;;;;3.17;2.73;;;12.60;65.70;;;;;;5068724;28;20968;-73
2021/04/11 05:46:42;;;;;;;4.50;2.53;;;12.70;65.40;;;;;;5068611;28;20450;-73
2021/04/11 05:49:18;;;;;;;4.90;3.07;;;12.70;65.40;;;;;;5073402;28;20436;-73
2021/04/11 05:52:08;;;;;;;7.93;3.57;;;12.80;65.10;;;;;;5074224;28;20590;-73
2021/04/11 05:54:40;;;;;;;10.03;3.60;;;12.90;65.30;;;;;;5071784;28;20921;-72
2021/04/11 05:57:28;;;;;;;5.43;3.40;;;13.00;64.80;;;;;;5078742;28;20442;-72
2021/04/11 06:00:04;;;;;;;5.60;3.07;;;13.00;64.80;;;;;;5080345;28;20454;-72
2021/04/11 06:02:37;;;;;;;4.10;2.30;;;13.00;64.20;;;;;;5071232;28;20436;-72
2021/04/11 06:05:10;;;;;;;8.00;3.33;;;13.00;63.10;;;;;;5066420;28;20995;-72
2021/04/11 06:07:58;;;;;;;6.20;2.70;;;13.20;63.40;;;;;;5084329;28;20494;-72
2021/04/11 06:10:35;;;;;;;6.23;2.97;;;13.30;62.60;;;;;;5079284;28;21396;-74
2021/04/11 06:13:25;;;;;;;4.50;2.87;;;13.30;63.50;;;;;;5068364;28;20461;-72
2021/04/11 06:16:06;;;;;;;9.03;2.43;;;13.40;62.50;;;;;;5056581;28;20426;-73
2021/04/11 06:18:31;;;;;;;3.70;2.30;;;13.50;61.90;;;;;;5070201;28;20430;-74
2021/04/11 06:21:01;;;;;;;4.77;3.00;;;13.50;62.50;;;;;;5069617;28;20432;-73
2021/04/11 06:23:32;;;;;;;4.23;2.27;;;13.60;61.30;;;;;;5069550;28;20192;-72
2021/04/11 06:26:04;;;;;;;6.37;2.80;;;13.70;60.90;;;;;;5068631;28;20956;-74
2021/04/11 06:28:43;;;;;;;3.80;2.30;;;13.80;60.00;;;;;;5069402;28;20429;-74
2021/04/11 06:31:35;;;;;;;3.03;2.07;;;13.80;60.70;;;;;;5062234;28;20469;-73
2021/04/11 06:34:08;;;;;;;4.23;2.10;;;13.70;60.10;;;;;;5071680;28;20525;-73
2021/04/11 06:36:40;;;;;;;6.03;2.60;;;13.80;60.60;;;;;;5072583;28;20446;-73
2021/04/11 06:39:28;;;;;;;4.77;2.70;;;13.80;60.40;;;;;;5058637;28;20422;-73
2021/04/11 06:42:19;;;;;;;4.13;2.57;;;13.90;59.90;;;;;;5069812;28;20414;-73
2021/04/11 06:45:04;;;;;;;4.17;3.30;;;14.10;59.30;;;;;;5083855;28;20434;-71
2021/04/11 06:48:01;;;;;;;4.70;2.70;;;14.20;58.50;;;;;;5071405;28;20499;-74
2021/04/11 06:51:05;;;;;;;2.93;2.20;;;14.30;58.40;;;;;;5058888;28;21033;-72
2021/04/11 06:53:49;;;;;;;3.30;2.20;;;14.30;58.10;;;;;;5069584;28;20441;-75
2021/04/11 06:56:36;;;;;;;3.07;2.53;;;14.40;58.00;;;;;;5068557;28;20432;-74
2021/04/11 06:59:13;;;;;;;3.50;2.57;;;14.40;58.10;;;;;;5064055;28;20493;-73
2021/04/11 07:02:16;;;;;;;4.23;1.90;;;14.40;58.00;;;;;;5055972;28;20414;-74
2021/04/11 07:05:02;;;;;;;2.47;1.90;;;14.50;56.90;;;;;;5068948;28;21121;-74
2021/04/11 07:07:37;;;;;;;2.10;1.63;;;14.50;56.20;;;;;;5069174;28;20842;-72
2021/04/11 07:10:34;;;;;;;3.70;2.10;;;14.70;56.50;;;;;;5068551;28;20833;-74
2021/04/11 07:13:28;;;;;;;4.97;2.00;;;14.90;54.90;;;;;;5054280;28;20505;-72
2021/04/11 07:16:19;;;;;;;3.67;2.00;;;14.90;54.90;;;;;;5067074;28;21022;-73
2021/04/11 07:19:30;;;;;;;4.00;1.70;;;15.00;53.80;;;;;;5047263;28;20430;-72
2021/04/11 07:22:36;;;;;;;1.73;1.60;;;15.10;53.60;;;;;;5061336;28;20423;-75
2021/04/11 07:25:31;;;;;;;3.77;2.20;;;15.10;53.80;;;;;;5058460;28;20436;-70
2021/04/11 07:28:20;;;;;;;3.10;2.40;;;15.20;53.20;;;;;;5069922;28;20843;-74
2021/04/11 07:31:12;;;;;;;4.47;2.73;;;15.20;53.30;;;;;;5069103;28;20478;-73
2021/04/11 07:34:08;;;;;;;2.60;1.73;;;15.30;53.40;;;;;;5071570;28;20855;-74
2021/04/11 07:36:45;;;;;;;4.30;1.93;;;15.40;53.60;;;;;;5070567;28;20438;-73
2021/04/11 07:39:29;;;;;;;4.17;2.30;;;15.40;53.70;;;;;;5058480;28;21141;-75
2021/04/11 07:42:29;;;;;;;3.07;2.00;;;15.50;53.60;;;;;;5068936;28;20433;-74
2021/04/11 07:45:20;;;;;;;4.10;2.80;;;15.50;53.30;;;;;;5068098;28;20785;-73
2021/04/11 07:48:21;;;;;;;7.00;2.77;;;15.80;52.80;;;;;;5067671;28;20455;-74
2021/04/11 07:51:01;;;;;;;2.40;1.70;;;15.90;52.50;;;;;;5012087;28;20618;-73
2021/04/11 07:53:51;;;;;;;4.20;1.93;;;15.90;52.10;;;;;;5063970;28;20442;-73
2021/04/11 07:56:32;;;;;;;4.60;2.00;;;16.00;52.00;;;;;;5067331;28;20426;-74
2021/04/11 07:59:14;;;;;;;3.80;1.90;;;16.00;52.00;;;;;;5062824;28;20431;-76
2021/04/11 08:02:10;;;;;;;5.20;2.20;;;16.10;51.80;;;;;;5066797;28;20503;-74
2021/04/11 08:05:03;;;;;;;4.00;1.73;;;16.10;51.80;;;;;;5067804;28;20430;-75
2021/04/11 08:07:48;;;;;;;3.40;2.30;;;16.10;52.10;;;;;;5064713;28;20821;-74
2021/04/11 08:10:38;;;;;;;4.37;2.10;;;16.20;52.10;;;;;;5062920;28;20432;-74
2021/04/11 08:13:47;;;;;;;3.13;2.03;;;16.30;52.00;;;;;;5053004;28;20862;-74
2021/04/11 08:16:22;;;;;;;2.93;1.67;;;16.30;52.00;;;;;;5018176;28;21139;-73
2021/04/11 08:18:53;;;;;;;2.37;1.50;;;16.40;52.10;;;;;;5067703;28;20779;-75
2021/04/11 08:21:37;;;;;;;3.30;2.00;;;16.40;51.70;;;;;;5056730;28;20430;-73
2021/04/11 08:24:06;;;;;;;1.80;1.40;;;16.50;51.40;;;;;;5068116;28;21108;-73
2021/04/11 08:26:50;;;;;;;3.27;1.57;;;16.60;51.60;;;;;;5068028;28;20449;-73
2021/04/11 08:29:31;;;;;;;3.03;1.57;;;16.70;51.20;;;;;;5065944;28;20463;-74
2021/04/11 08:32:26;;;;;;;3.30;1.43;;;16.80;50.50;;;;;;5068246;28;21389;-72
2021/04/11 08:35:10;;;;;;;1.60;1.20;;;16.90;50.50;;;;;;5070700;28;20432;-75
2021/04/11 08:37:40;;;;;;;4.73;1.67;;;17.00;50.50;;;;;;5068677;28;20445;-73
2021/04/11 08:40:32;;;;;;;3.07;1.50;;;17.10;50.10;;;;;;5067911;28;20425;-73
2021/04/11 08:43:36;;;;;;;2.93;1.40;;;17.20;49.70;;;;;;5076405;28;20421;-72
2021/04/11 08:46:13;;;;;;;3.33;1.43;;;17.30;49.30;;;;;;5069156;28;20428;-73
2021/04/11 08:49:06;;;;;;;4.30;1.33;;;17.20;49.70;;;;;;5072759;28;20429;-73
2021/04/11 08:51:55;;;;;;;3.77;1.97;;;17.40;49.10;;;;;;5052866;28;20478;-73
2021/04/11 08:54:49;;;;;;;1.70;1.30;;;17.60;48.30;;;;;;5067979;28;20890;-73
2021/04/11 08:57:39;;;;;;;2.80;1.43;;;17.60;48.50;;;;;;5065576;28;20452;-74
2021/04/11 09:00:21;;;;;;;2.50;1.50;;;17.70;48.20;;;;;;5071475;28;20439;-72
2021/04/11 09:03:08;;;;;;;2.27;1.30;;;17.80;48.10;;;;;;5071210;28;20425;-74
2021/04/11 09:05:50;;;;;;;3.10;1.47;;;17.70;48.50;;;;;;5071192;28;20425;-73
2021/04/11 09:08:37;;;;;;;2.97;2.30;;;17.70;48.20;;;;;;5071853;28;20506;-73
2021/04/11 09:11:15;;;;;;;4.50;1.30;;;17.50;48.70;;;;;;5070876;28;21197;-73
2021/04/11 09:13:50;;;;;;;3.47;1.73;;;17.60;48.70;;;;;;5072099;28;20973;-73
2021/04/11 09:16:38;;;;;;;2.17;1.23;;;17.60;48.50;;;;;;5056469;28;20428;-74
2021/04/11 09:19:12;;;;;;;5.00;1.33;;;17.50;48.60;;;;;;5070853;28;20421;-73
2021/04/11 09:21:50;;;;;;;3.20;1.83;;;17.60;48.60;;;;;;5071188;28;20431;-74
2021/04/11 09:24:29;;;;;;;4.17;1.60;;;17.70;48.30;;;;;;5070591;28;20436;-73
2021/04/11 09:27:18;;;;;;;1.87;1.40;;;17.80;47.70;;;;;;5070495;28;20953;-73
2021/04/11 09:29:57;;;;;;;4.03;2.13;;;17.70;47.50;;;;;;5070940;28;20429;-71
2021/04/11 09:32:45;;;;;;;3.60;1.40;;;17.70;47.70;;;;;;5070925;28;20740;-72
2021/04/11 09:35:20;;;;;;;3.90;1.73;;;17.70;47.80;;;;;;5071471;28;21007;-72
2021/04/11 09:38:21;;;;;;;3.27;1.70;;;17.80;47.80;;;;;;5066693;28;20473;-73
2021/04/11 09:41:17;;;;;;;2.60;1.60;;;17.70;47.80;;;;;;4997504;28;20468;-72
2021/04/11 09:43:46;;;;;;;2.80;1.57;;;17.70;47.90;;;;;;5076760;28;20441;-72
2021/04/11 09:46:38;;;;;;;3.20;1.77;;;17.80;47.70;;;;;;5074233;28;20434;-73
2021/04/11 09:49:09;;;;;;;4.73;1.60;;;17.90;47.30;;;;;;5063292;28;20434;-72
2021/04/11 09:51:59;;;;;;;3.53;1.87;;;17.80;47.50;;;;;;5080132;28;20488;-74
2021/04/11 09:54:44;;;;;;;3.50;1.80;;;17.70;47.90;;;;;;5081742;28;20414;-73
2021/04/11 09:57:22;;;;;;;3.10;1.53;;;17.80;47.80;;;;;;5075900;28;20465;-74
2021/04/11 10:00:02;;;;;;;4.10;1.93;;;18.00;47.40;;;;;;5073373;28;20917;-73
2021/04/11 10:02:52;;;;;;;5.43;1.63;;;18.10;47.30;;;;;;5080231;28;20416;-75
2021/04/11 10:05:43;;;;;;;4.30;2.00;;;18.10;46.70;;;;;;5065737;28;20505;-73
2021/04/11 10:08:08;;;;;;;2.70;1.80;;;18.10;46.30;;;;;;5072108;28;20438;-73
2021/04/11 10:10:53;;;;;;;5.40;1.80;;;18.10;46.70;;;;;;5071408;28;20457;-72
2021/04/11 10:13:46;;;;;;;2.77;1.73;;;18.10;46.70;;;;;;5072882;28;20198;-72
2021/04/11 10:16:48;;;;;;;2.60;1.53;;;18.10;46.70;;;;;;5059692;28;20414;-72
2021/04/11 10:19:42;;;;;;;4.93;1.50;;;18.30;45.70;;;;;;5071716;28;20805;-73
2021/04/11 10:22:10;;;;;;;2.10;1.50;;;18.50;44.60;;;;;;5071008;28;20451;-73
2021/04/11 10:24:58;;;;;;;3.13;1.30;;;18.60;44.30;;;;;;5066920;28;20427;-72
2021/04/11 10:27:28;;;;;;;5.80;1.80;;;18.70;43.90;;;;;;5064372;28;20434;-73
2021/04/11 10:29:56;;;;;;;1.90;1.63;;;18.80;43.80;;;;;;5072285;28;20411;-74
2021/04/11 10:32:40;;;;;;;2.40;1.60;;;19.00;43.50;;;;;;5071634;28;20469;-74
2021/04/11 10:35:12;;;;;;;2.43;1.50;;;19.20;42.60;;;;;;5070736;28;20430;-74
2021/04/11 10:38:01;;;;;;;3.77;1.80;;;19.10;42.60;;;;;;5071766;28;20447;-73
2021/04/11 10:40:45;;;;;;;3.30;1.60;;;19.30;42.00;;;;;;5070317;28;20502;-73
2021/04/11 10:43:39;;;;;;;2.30;1.77;;;19.50;41.90;;;;;;5070821;28;20902;-72
2021/04/11 10:46:21;;;;;;;3.50;1.77;;;19.20;41.60;;;;;;5069401;28;20904;-73
2021/04/11 10:49:17;;;;;;;3.90;1.40;;;18.90;42.20;;;;;;5070434;28;20442;-73
2021/04/11 10:52:06;;;;;;;6.07;1.53;;;18.90;42.00;;;;;;5070572;28;20779;-72
2021/04/11 10:54:38;;;;;;;4.13;1.50;;;18.70;42.20;;;;;;5071639;28;20441;-72
2021/04/11 10:57:18;;;;;;;2.13;1.60;;;18.50;42.80;;;;;;5071498;28;20445;-75
2021/04/11 11:00:04;;;;;;;3.23;1.70;;;18.50;43.10;;;;;;5068980;28;20426;-73
2021/04/11 11:03:01;;;;;;;6.73;1.80;;;18.70;42.70;;;;;;5070042;28;20424;-74
2021/04/11 11:06:05;;;;;;;4.93;1.70;;;18.70;43.00;;;;;;5048589;28;20971;-73
2021/04/11 11:08:49;;;;;;;2.60;1.77;;;18.60;43.00;;;;;;4986684;28;20954;-73
2021/04/11 11:11:24;;;;;;;3.70;2.40;;;18.40;43.40;;;;;;5068168;28;20454;-73
2021/04/11 11:14:28;;;;;;;12.67;2.97;;;18.40;43.80;;;;;;5067938;28;20440;-73
2021/04/11 11:16:57;;;;;;;5.03;2.07;;;18.50;43.70;;;;;;4987146;28;20487;-74
2021/04/11 11:19:57;;;;;;;3.90;2.70;;;18.50;43.50;;;;;;5067827;28;20909;-74
2021/04/11 11:23:04;;;;;;;5.50;2.03;;;18.40;43.90;;;;;;5068242;28;20476;-74
2021/04/11 11:26:07;;;;;;;7.20;2.40;;;18.20;44.30;;;;;;5042837;28;20514;-74
2021/04/11 11:28:59;;;;;;;3.50;2.00;;;18.20;44.60;;;;;;5063664;28;20418;-73
2021/04/11 11:31:46;;;;;;;3.93;2.00;;;18.40;44.20;;;;;;5070827;28;20542;-72
2021/04/11 11:34:27;;;;;;;5.70;2.13;;;18.50;44.20;;;;;;5056612;28;20436;-72
2021/04/11 11:37:10;;;;;;;3.80;2.13;;;18.60;44.10;;;;;;5068975;28;20430;-73
2021/04/11 11:39:46;;;;;;;4.23;2.00;;;18.80;43.70;;;;;;5070466;28;20782;-74
2021/04/11 11:42:30;;;;;;;3.40;1.80;;;19.20;42.80;;;;;;5065704;28;20433;-73
2021/04/11 11:45:09;;;;;;;3.70;1.77;;;19.40;42.30;;;;;;5064233;28;20792;-73
2021/04/11 11:47:48;;;;;;;2.90;2.33;;;19.80;41.60;;;;;;5070392;28;20444;-73
2021/04/11 11:50:36;;;;;;;2.57;1.83;;;20.00;41.00;;;;;;5070646;28;20467;-73
2021/04/11 11:53:02;;;;;;;4.57;2.43;;;20.10;40.80;;;;;;5070862;28;20448;-74
2021/04/11 11:55:30;;;;;;;6.63;2.20;;;20.60;40.20;;;;;;5070681;28;20522;-74
2021/04/11 11:58:10;;;;;;;3.30;2.10;;;21.20;38.60;;;;;;5070262;28;21634;-73
2021/04/11 12:00:43;;;;;;;3.60;2.43;;;21.60;37.90;;;;;;5069759;28;20562;-74
2021/04/11 12:03:21;;;;;;;4.97;2.00;;;22.20;36.60;;;;;;5069719;28;20417;-73
2021/04/11 12:06:07;;;;;;;4.60;2.20;;;22.20;36.40;;;;;;5070032;28;20429;-72
2021/04/11 12:08:52;;;;;;;3.17;2.20;;;22.10;37.10;;;;;;5069486;28;20421;-73
2021/04/11 12:11:37;;;;;;;6.13;2.47;;;22.30;36.70;;;;;;5064487;28;20461;-74
2021/04/11 12:14:11;;;;;;;5.30;2.20;;;22.30;36.00;;;;;;5064419;28;20502;-73
2021/04/11 12:16:46;;;;;;;3.70;2.00;;;22.50;36.60;;;;;;5058501;28;20535;-74
2021/04/11 12:19:19;;;;;;;4.13;2.07;;;22.90;35.30;;;;;;5067899;28;20498;-73
2021/04/11 12:22:33;;;;;;;3.10;2.07;;;22.10;36.20;;;;;;5069334;28;20425;-73
2021/04/11 12:25:04;;;;;;;2.97;2.17;;;22.10;36.80;;;;;;5046007;28;20523;-75
2021/04/11 12:27:36;;;;;;;6.60;2.20;;;22.30;36.00;;;;;;5064473;28;20447;-76
2021/04/11 12:30:07;;;;;;;2.10;1.77;;;22.70;35.70;;;;;;5070310;28;20433;-75
2021/04/11 12:33:10;;;;;;;3.40;1.97;;;22.60;34.90;;;;;;5062180;28;20430;-74
2021/04/11 12:35:41;;;;;;;2.67;1.70;;;22.80;34.90;;;;;;5070276;28;20421;-74
2021/04/11 12:38:46;;;;;;;4.10;1.60;;;22.50;35.10;;;;;;5069989;28;20433;-75
2021/04/11 12:41:21;;;;;;;2.23;1.77;;;22.00;35.70;;;;;;5059957;28;20439;-76
2021/04/11 12:44:14;;;;;;;4.90;2.00;;;21.90;36.60;;;;;;5068205;28;20443;-75
2021/04/11 12:46:45;;;;;;;3.10;1.83;;;21.60;36.80;;;;;;5069742;28;20509;-75
2021/04/11 12:49:25;;;;;;;4.53;2.50;;;21.50;37.80;;;;;;5069325;28;20931;-75
2021/04/11 12:52:09;;;;;;;4.97;2.03;;;21.00;41.50;;;;;;5069019;28;20493;-75
2021/04/11 12:54:37;;;;;;;3.63;1.90;;;20.80;42.70;;;;;;5069003;28;20656;-75
2021/04/11 12:57:11;;;;;;;2.97;1.90;;;20.50;43.70;;;;;;5069170;28;20517;-76
2021/04/11 12:59:51;;;;;;;6.13;2.07;;;20.10;45.30;;;;;;5068728;28;20452;-76
2021/04/11 13:02:30;;;;;;;4.57;1.80;;;19.90;46.20;;;;;;5069058;28;20428;-76
2021/04/11 13:05:05;;;;;;;4.50;2.80;;;19.80;46.30;;;;;;5068948;28;20421;-75
2021/04/11 13:07:58;;;;;;;5.43;2.40;;;19.80;46.70;;;;;;5069251;28;20451;-76
2021/04/11 13:10:38;;;;;;;3.67;2.10;;;19.70;46.70;;;;;;5068956;28;20438;-76
2021/04/11 13:13:30;;;;;;;4.77;2.00;;;19.90;46.50;;;;;;5057397;28;20917;-76
2021/04/11 13:16:04;;;;;;;2.10;1.80;;;20.00;46.20;;;;;;5055902;28;20427;-76
2021/04/11 13:18:39;;;;;;;2.10;1.50;;;20.10;45.70;;;;;;5069565;28;20424;-75
2021/04/11 13:21:20;;;;;;;4.33;1.90;;;19.90;46.10;;;;;;5069227;28;20422;-75
2021/04/11 13:24:00;;;;;;;4.83;3.17;;;19.80;46.30;;;;;;5067920;28;20440;-76
2021/04/11 13:26:54;;;;;;;2.93;1.93;;;19.70;46.70;;;;;;5067664;28;20459;-76
2021/04/11 13:29:27;;;;;;;2.73;1.90;;;19.50;47.30;;;;;;5053119;28;20428;-75
2021/04/11 13:32:13;;;;;;;4.13;2.00;;;19.40;47.10;;;;;;5071942;28;20465;-76
2021/04/11 13:34:44;;;;;;;6.40;2.70;;;19.50;47.30;;;;;;5071493;28;20412;-76
2021/04/11 13:37:14;;;;;;;5.13;2.00;;;19.70;47.00;;;;;;5069495;28;20452;-75
2021/04/11 13:39:45;;;;;;;2.77;1.90;;;19.60;47.00;;;;;;5066384;28;20455;-75
2021/04/11 13:42:25;;;;;;;3.23;1.77;;;19.50;47.40;;;;;;5076852;28;20417;-76
2021/04/11 13:45:19;;;;;;;2.47;2.03;;;19.20;48.60;;;;;;5074691;28;20431;-73
2021/04/11 13:48:16;;;;;;;5.40;2.23;;;18.90;49.70;;;;;;5073045;28;20518;-74